Time;durP1;ratioP1;P1;durP2;ratioP2;P2;SDS_P1;SDS_P2;PMS_P1;PMS_P2;Temp;Humidity;BMP_temperature;BMP_pressure;BME280_temperature;BME280_humidity;BME280_pressure;Samples;Min_cycle;Max_cycle;Signal;HPM_P1;HPM_P2
2022/08/27 00:01:43;;;;;;;4.00;2.10;;;21.00;99.90;;;;;;5050855;28;20032;-71
2022/08/27 00:04:09;;;;;;;3.47;2.45;;;20.90;99.90;;;;;;5050716;28;20029;-71
2022/08/27 00:06:35;;;;;;;3.60;2.05;;;20.90;99.90;;;;;;5050457;28;20100;-70
2022/08/27 00:09:02;;;;;;;7.57;2.88;;;20.90;99.90;;;;;;5051916;28;20025;-71
2022/08/27 00:11:28;;;;;;;4.30;2.20;;;20.90;99.90;;;;;;5054981;28;20101;-71
2022/08/27 00:13:55;;;;;;;5.10;2.30;;;20.80;99.90;;;;;;5054766;28;20107;-71
2022/08/27 00:16:21;;;;;;;4.60;2.10;;;20.80;99.90;;;;;;5054263;28;20055;-71
2022/08/27 00:18:47;;;;;;;5.68;1.90;;;20.70;99.90;;;;;;5052944;28;20037;-71
2022/08/27 00:21:13;;;;;;;8.38;2.15;;;20.80;99.90;;;;;;5054806;28;20142;-71
2022/08/27 00:23:40;;;;;;;3.95;1.80;;;20.80;99.90;;;;;;5026891;28;20040;-71
2022/08/27 00:26:07;;;;;;;4.15;1.73;;;20.80;99.90;;;;;;5048323;28;20103;-71
2022/08/27 00:28:33;;;;;;;5.32;2.10;;;20.80;99.90;;;;;;5037566;28;20033;-71
2022/08/27 00:30:59;;;;;;;4.55;1.83;;;20.80;99.90;;;;;;5054244;28;20041;-71
2022/08/27 00:33:25;;;;;;;8.10;2.08;;;20.90;99.90;;;;;;5054375;28;20110;-71
2022/08/27 00:35:52;;;;;;;5.13;1.80;;;20.90;99.90;;;;;;5053654;28;20032;-71
2022/08/27 00:38:20;;;;;;;3.00;1.80;;;20.80;99.90;;;;;;5054066;28;20025;-71
2022/08/27 00:40:46;;;;;;;2.90;2.10;;;20.90;99.90;;;;;;5050369;28;20111;-71
2022/08/27 00:43:12;;;;;;;5.43;2.10;;;20.90;99.90;;;;;;5054438;28;20143;-71
2022/08/27 00:45:42;;;;;;;8.63;2.47;;;20.90;99.90;;;;;;5054867;28;20028;-71
2022/08/27 00:48:11;;;;;;;4.60;2.20;;;21.00;99.90;;;;;;5052697;28;20021;-72
2022/08/27 00:50:41;;;;;;;9.27;2.80;;;21.00;99.90;;;;;;5053626;28;20116;-72
2022/08/27 00:53:12;;;;;;;11.02;2.38;;;21.00;99.90;;;;;;5053967;28;20017;-71
2022/08/27 00:55:51;;;;;;;4.00;2.40;;;21.00;99.90;;;;;;5053743;28;20055;-71
2022/08/27 00:58:27;;;;;;;5.35;2.00;;;20.90;99.90;;;;;;5056580;28;20028;-70
2022/08/27 01:00:54;;;;;;;2.97;2.22;;;20.90;99.90;;;;;;5054218;28;20028;-71
2022/08/27 01:03:20;;;;;;;8.65;2.78;;;20.90;99.90;;;;;;5053099;28;20099;-71
2022/08/27 01:05:49;;;;;;;5.35;2.40;;;20.90;99.90;;;;;;5053110;28;20033;-71
2022/08/27 01:08:19;;;;;;;5.40;2.25;;;20.90;99.90;;;;;;5047678;28;20388;-71
2022/08/27 01:10:46;;;;;;;5.75;2.22;;;20.70;99.90;;;;;;5051991;28;20486;-71
2022/08/27 01:13:14;;;;;;;7.20;2.33;;;20.70;99.90;;;;;;5053876;28;20032;-70
2022/08/27 01:15:41;;;;;;;6.30;2.28;;;20.60;99.90;;;;;;5054192;28;20067;-72
2022/08/27 01:18:07;;;;;;;5.10;2.22;;;20.60;99.90;;;;;;5048602;28;20041;-71
2022/08/27 01:20:56;;;;;;;5.35;2.17;;;20.60;99.90;;;;;;5050257;28;20017;-71
2022/08/27 01:23:43;;;;;;;4.05;2.10;;;20.50;99.90;;;;;;5052381;28;20087;-71
2022/08/27 01:26:13;;;;;;;5.80;2.35;;;20.50;99.90;;;;;;5052820;28;20039;-70
2022/08/27 01:28:39;;;;;;;7.82;2.50;;;20.60;99.90;;;;;;5053182;28;20581;-71
2022/08/27 01:31:07;;;;;;;4.88;2.50;;;20.50;99.90;;;;;;5053565;28;20108;-72
2022/08/27 01:33:33;;;;;;;3.35;2.10;;;20.60;99.90;;;;;;5053804;28;20025;-72
2022/08/27 01:35:59;;;;;;;4.85;2.78;;;20.40;99.90;;;;;;5035513;28;20029;-71
2022/08/27 01:38:26;;;;;;;8.68;2.67;;;20.50;99.90;;;;;;5034684;28;20082;-71
2022/08/27 01:40:52;;;;;;;6.00;2.75;;;20.50;99.90;;;;;;5053053;28;20028;-71
2022/08/27 01:43:19;;;;;;;4.85;2.75;;;20.50;99.90;;;;;;5052262;28;20062;-71
2022/08/27 01:45:50;;;;;;;7.57;2.55;;;20.40;99.90;;;;;;5059012;28;20112;-71
2022/08/27 01:48:18;;;;;;;7.18;2.90;;;20.40;99.90;;;;;;5064671;28;20021;-70
2022/08/27 01:50:46;;;;;;;5.55;2.95;;;20.40;99.90;;;;;;5063031;28;20503;-71
2022/08/27 01:53:16;;;;;;;6.15;3.20;;;20.40;99.90;;;;;;5060674;28;20020;-71
2022/08/27 01:55:43;;;;;;;4.47;2.53;;;20.40;99.90;;;;;;5061601;28;20107;-71
2022/08/27 01:58:10;;;;;;;6.32;2.63;;;20.40;99.90;;;;;;5064927;28;20036;-71
2022/08/27 02:00:40;;;;;;;5.85;3.08;;;20.40;99.90;;;;;;5061797;28;20043;-71
2022/08/27 02:03:08;;;;;;;8.80;2.78;;;20.30;99.90;;;;;;5059548;28;20040;-71
2022/08/27 02:05:35;;;;;;;5.68;3.55;;;20.30;99.90;;;;;;5064583;28;20024;-71
2022/08/27 02:08:01;;;;;;;7.28;3.35;;;20.20;99.90;;;;;;5059547;28;20079;-71
2022/08/27 02:10:33;;;;;;;6.30;3.03;;;20.20;99.90;;;;;;5061599;28;20036;-71
2022/08/27 02:13:00;;;;;;;5.18;3.20;;;20.20;99.90;;;;;;5060124;28;20040;-71
2022/08/27 02:15:28;;;;;;;7.07;3.25;;;20.20;99.90;;;;;;5063414;28;20028;-71
2022/08/27 02:17:55;;;;;;;5.30;3.33;;;20.20;99.90;;;;;;5043466;28;20017;-71
2022/08/27 02:20:21;;;;;;;5.20;3.45;;;20.20;99.90;;;;;;5063218;28;20016;-71
2022/08/27 02:22:48;;;;;;;5.40;3.17;;;20.10;99.90;;;;;;5043242;28;20027;-71
2022/08/27 02:25:15;;;;;;;7.40;3.53;;;20.10;99.90;;;;;;5064369;28;20021;-71
2022/08/27 02:27:42;;;;;;;8.60;3.42;;;20.20;99.90;;;;;;5062527;28;20424;-71
2022/08/27 02:30:10;;;;;;;7.32;3.75;;;20.20;99.90;;;;;;5061794;28;20071;-71
2022/08/27 02:32:36;;;;;;;8.80;3.50;;;20.10;99.90;;;;;;5059750;28;20024;-71
2022/08/27 02:35:03;;;;;;;7.28;3.45;;;20.10;99.90;;;;;;5061960;28;20028;-71
2022/08/27 02:37:29;;;;;;;6.60;3.92;;;20.10;99.90;;;;;;5061951;28;20026;-71
2022/08/27 02:39:55;;;;;;;8.27;3.58;;;20.10;99.90;;;;;;5061187;28;20029;-71
2022/08/27 02:42:21;;;;;;;8.02;4.32;;;20.10;99.90;;;;;;5063154;28;20024;-71
2022/08/27 02:44:47;;;;;;;7.10;3.88;;;20.10;99.90;;;;;;5061615;28;20393;-71
2022/08/27 02:47:13;;;;;;;7.55;4.40;;;20.10;99.90;;;;;;5061003;28;20389;-71
2022/08/27 02:49:38;;;;;;;5.38;3.45;;;20.10;99.90;;;;;;5060771;28;20032;-71
2022/08/27 02:52:05;;;;;;;7.65;3.60;;;20.10;99.90;;;;;;5062624;28;20029;-72
2022/08/27 02:54:31;;;;;;;7.78;4.10;;;20.00;99.90;;;;;;5038553;28;20029;-72
2022/08/27 02:56:57;;;;;;;11.48;4.13;;;20.00;99.90;;;;;;5052213;28;20024;-72
2022/08/27 02:59:23;;;;;;;10.45;4.32;;;20.00;99.90;;;;;;5052080;28;20025;-71
2022/08/27 03:01:49;;;;;;;12.20;4.65;;;20.00;99.90;;;;;;5051994;28;20359;-74
2022/08/27 03:04:15;;;;;;;5.88;3.53;;;20.00;99.90;;;;;;5052339;28;20389;-71
2022/08/27 03:06:41;;;;;;;6.05;3.35;;;19.90;99.90;;;;;;5052896;28;20029;-72
2022/08/27 03:09:09;;;;;;;5.43;4.00;;;19.90;99.90;;;;;;5034609;28;20025;-72
2022/08/27 03:11:34;;;;;;;8.95;4.10;;;19.90;99.90;;;;;;5052960;28;20112;-72
2022/08/27 03:14:00;;;;;;;6.68;3.80;;;19.90;99.90;;;;;;5052842;28;20068;-73
2022/08/27 03:16:26;;;;;;;8.10;3.83;;;19.90;99.90;;;;;;5052725;28;20021;-72
2022/08/27 03:18:52;;;;;;;9.05;4.20;;;19.90;99.90;;;;;;5049903;28;20100;-71
2022/08/27 03:21:21;;;;;;;10.35;4.28;;;19.80;99.90;;;;;;5052236;28;20028;-72
2022/08/27 03:23:47;;;;;;;6.65;4.32;;;19.90;99.90;;;;;;5050968;28;20493;-73
2022/08/27 03:26:13;;;;;;;7.30;3.70;;;19.70;99.90;;;;;;5034429;28;20044;-72
2022/08/27 03:28:40;;;;;;;6.78;3.92;;;19.70;99.90;;;;;;5052678;28;20029;-72
2022/08/27 03:31:11;;;;;;;7.47;4.03;;;19.60;99.90;;;;;;5052007;28;20036;-73
2022/08/27 03:33:38;;;;;;;9.50;4.45;;;19.70;99.90;;;;;;5052590;28;20014;-72
2022/08/27 03:36:07;;;;;;;7.55;4.15;;;19.70;99.90;;;;;;5051945;28;20037;-71
2022/08/27 03:38:34;;;;;;;7.68;4.40;;;19.70;99.90;;;;;;5052409;28;20013;-72
2022/08/27 03:41:03;;;;;;;11.00;4.97;;;19.70;99.90;;;;;;5052239;28;20029;-71
2022/08/27 03:43:29;;;;;;;9.88;4.28;;;19.70;99.90;;;;;;5034701;28;20032;-71
2022/08/27 03:45:55;;;;;;;7.18;4.05;;;19.60;99.90;;;;;;5051931;28;20025;-72
2022/08/27 03:48:21;;;;;;;6.28;4.32;;;19.60;99.90;;;;;;5051429;28;20393;-71
2022/08/27 03:50:49;;;;;;;11.23;4.82;;;19.60;99.90;;;;;;5051249;28;20036;-72
2022/08/27 03:53:16;;;;;;;6.68;4.50;;;19.50;99.90;;;;;;5051830;28;20032;-71
2022/08/27 03:55:42;;;;;;;6.72;4.13;;;19.50;99.90;;;;;;5051950;28;20516;-71
2022/08/27 03:58:09;;;;;;;12.73;4.45;;;19.50;99.90;;;;;;5051266;28;20021;-73
2022/08/27 04:00:36;;;;;;;7.22;4.43;;;19.50;99.90;;;;;;5047615;28;20025;-72
2022/08/27 04:03:04;;;;;;;10.40;4.95;;;19.50;99.90;;;;;;5046787;28;20032;-74
2022/08/27 04:05:30;;;;;;;8.32;4.63;;;19.50;99.90;;;;;;5038159;28;20046;-72
2022/08/27 04:07:55;;;;;;;7.97;4.30;;;19.40;99.90;;;;;;5032199;28;20068;-72
2022/08/27 04:10:21;;;;;;;8.43;5.00;;;19.40;99.90;;;;;;5028106;28;20061;-73
2022/08/27 04:12:47;;;;;;;7.78;4.80;;;19.40;99.90;;;;;;5034298;28;20019;-73
2022/08/27 04:15:13;;;;;;;9.35;5.10;;;19.40;99.90;;;;;;5051841;28;20067;-73
2022/08/27 04:17:39;;;;;;;5.65;4.43;;;19.30;99.90;;;;;;5052128;28;20019;-72
2022/08/27 04:20:07;;;;;;;10.73;4.30;;;19.30;99.90;;;;;;5051740;28;20466;-73
2022/08/27 04:22:33;;;;;;;9.43;5.40;;;19.30;99.90;;;;;;5032975;28;20106;-73
2022/08/27 04:24:59;;;;;;;8.18;4.97;;;19.30;99.90;;;;;;5051664;28;20117;-72
2022/08/27 04:27:25;;;;;;;5.85;4.78;;;19.30;99.90;;;;;;5033727;28;20459;-74
2022/08/27 04:29:55;;;;;;;9.98;4.75;;;19.30;99.90;;;;;;5051286;28;20481;-72
2022/08/27 04:32:22;;;;;;;6.82;4.75;;;19.20;99.90;;;;;;5034078;28;20056;-71
2022/08/27 04:34:48;;;;;;;9.18;4.72;;;19.30;99.90;;;;;;5051907;28;20025;-71
2022/08/27 04:37:13;;;;;;;13.93;4.60;;;19.20;99.90;;;;;;5051978;28;20021;-72
2022/08/27 04:39:39;;;;;;;9.60;4.38;;;19.10;99.90;;;;;;5051262;28;20025;-71
2022/08/27 04:42:05;;;;;;;9.85;4.78;;;19.20;99.90;;;;;;5051543;28;20481;-70
2022/08/27 04:44:32;;;;;;;6.10;4.72;;;19.20;99.90;;;;;;5051269;28;20151;-71
2022/08/27 04:47:00;;;;;;;7.60;4.78;;;19.10;99.90;;;;;;5052139;28;20028;-70
2022/08/27 04:49:29;;;;;;;7.25;4.70;;;19.20;99.90;;;;;;5051576;28;20168;-70
2022/08/27 04:51:55;;;;;;;8.80;5.30;;;19.10;99.90;;;;;;5051379;28;20032;-70
2022/08/27 04:54:22;;;;;;;9.20;4.50;;;19.10;99.90;;;;;;5053741;28;20036;-70
2022/08/27 04:56:48;;;;;;;8.55;4.38;;;19.10;99.90;;;;;;5055449;28;20021;-70
2022/08/27 04:59:14;;;;;;;8.68;4.65;;;19.10;99.90;;;;;;5054765;28;20025;-70
2022/08/27 05:01:41;;;;;;;7.75;4.80;;;19.10;99.90;;;;;;5055259;28;20044;-70
2022/08/27 05:04:09;;;;;;;6.32;4.38;;;19.20;99.90;;;;;;5054969;28;20031;-70
2022/08/27 05:06:35;;;;;;;10.25;5.00;;;19.20;99.90;;;;;;5055397;28;20485;-70
2022/08/27 05:09:02;;;;;;;8.75;4.82;;;19.20;99.90;;;;;;5055205;28;20025;-71
2022/08/27 05:11:31;;;;;;;7.68;4.55;;;19.20;99.90;;;;;;5055212;28;20037;-70
2022/08/27 05:14:00;;;;;;;8.85;4.55;;;19.20;99.90;;;;;;5054579;28;20123;-70
2022/08/27 05:16:26;;;;;;;11.82;4.90;;;19.10;99.90;;;;;;5035059;28;20041;-70
2022/08/27 05:18:52;;;;;;;16.00;6.47;;;19.10;99.90;;;;;;5017287;28;20032;-71
2022/08/27 05:21:27;;;;;;;6.85;4.45;;;19.10;99.90;;;;;;5034930;28;20026;-70
2022/08/27 05:23:55;;;;;;;10.10;5.00;;;19.20;99.90;;;;;;5054219;28;20461;-71
2022/08/27 05:26:21;;;;;;;9.93;5.22;;;19.20;99.90;;;;;;5054229;28;20028;-71
2022/08/27 05:28:47;;;;;;;9.48;4.95;;;19.20;99.90;;;;;;5037796;28;20021;-71
2022/08/27 05:31:14;;;;;;;8.70;4.97;;;19.20;99.90;;;;;;5065953;28;20054;-70
2022/08/27 05:33:41;;;;;;;8.18;5.53;;;19.20;99.90;;;;;;5035166;28;20026;-71
2022/08/27 05:36:19;;;;;;;9.23;5.22;;;19.10;99.90;;;;;;5034995;28;20022;-70
2022/08/27 05:38:48;;;;;;;7.18;4.90;;;19.10;99.90;;;;;;5017117;28;20025;-71
2022/08/27 05:41:17;;;;;;;10.35;5.82;;;19.20;99.90;;;;;;5034237;28;20021;-71
2022/08/27 05:43:44;;;;;;;9.00;5.05;;;19.20;99.90;;;;;;5034716;28;20026;-71
2022/08/27 05:46:12;;;;;;;10.60;5.78;;;19.20;99.90;;;;;;5033944;28;20025;-71
2022/08/27 05:48:40;;;;;;;11.90;6.82;;;19.20;99.90;;;;;;5052770;28;20017;-71
2022/08/27 05:51:19;;;;;;;10.13;5.47;;;19.20;99.90;;;;;;5036403;28;20029;-71
2022/08/27 05:53:45;;;;;;;13.30;5.95;;;19.20;99.90;;;;;;5054292;28;20059;-71
2022/08/27 05:56:20;;;;;;;11.63;5.68;;;19.20;99.90;;;;;;5053788;28;20129;-71
2022/08/27 06:01:35;;;;;;;9.20;6.15;;;19.20;99.90;;;;;;5044130;28;20596;-76
2022/08/27 06:04:03;;;;;;;9.15;5.18;;;19.20;99.90;;;;;;5034078;28;20462;-70
2022/08/27 06:06:29;;;;;;;8.05;5.75;;;19.30;99.90;;;;;;5038441;28;20032;-71
2022/08/27 06:08:54;;;;;;;11.48;5.70;;;19.20;99.90;;;;;;5026837;28;20026;-71
2022/08/27 06:11:20;;;;;;;7.97;5.32;;;19.20;99.90;;;;;;5041411;28;20036;-71
2022/08/27 06:13:47;;;;;;;9.57;6.43;;;19.20;99.90;;;;;;5053722;28;20162;-71
2022/08/27 06:16:15;;;;;;;12.82;6.20;;;19.30;99.90;;;;;;5053409;28;20025;-71
2022/08/27 06:18:44;;;;;;;14.32;5.75;;;19.20;99.90;;;;;;5035262;28;20094;-70
2022/08/27 06:21:11;;;;;;;8.48;6.20;;;19.20;99.90;;;;;;5052987;28;20025;-70
2022/08/27 06:23:37;;;;;;;11.90;6.28;;;19.30;99.90;;;;;;5052922;28;20025;-70
2022/08/27 06:26:10;;;;;;;11.98;5.85;;;19.30;99.90;;;;;;5051990;28;20416;-73
2022/08/27 06:28:38;;;;;;;11.07;6.35;;;19.40;99.90;;;;;;5052455;28;20082;-71
2022/08/27 06:31:05;;;;;;;10.48;7.00;;;19.40;99.90;;;;;;5052771;28;20025;-71
2022/08/27 06:33:31;;;;;;;10.90;5.55;;;19.40;99.90;;;;;;5052903;28;20037;-72
2022/08/27 06:36:01;;;;;;;12.23;5.97;;;19.40;99.90;;;;;;5052238;28;20404;-71
2022/08/27 06:38:28;;;;;;;8.23;6.10;;;19.50;99.90;;;;;;5052232;28;20017;-71
2022/08/27 06:40:55;;;;;;;10.73;6.10;;;19.40;99.90;;;;;;5052643;28;20100;-71
2022/08/27 06:43:21;;;;;;;14.88;6.93;;;19.40;99.90;;;;;;5053214;28;20051;-70
2022/08/27 06:45:48;;;;;;;10.48;6.25;;;19.50;99.90;;;;;;5058321;28;20045;-71
2022/08/27 06:48:14;;;;;;;11.82;6.38;;;19.40;99.90;;;;;;5062576;28;20465;-70
2022/08/27 06:50:42;;;;;;;11.20;5.90;;;19.40;99.90;;;;;;5053688;28;20045;-71
2022/08/27 06:53:08;;;;;;;10.10;5.95;;;19.40;99.90;;;;;;5055132;28;20021;-71
2022/08/27 06:55:45;;;;;;;9.40;5.70;;;19.50;99.90;;;;;;5052650;28;20428;-71
2022/08/27 06:58:12;;;;;;;9.70;5.95;;;19.50;99.90;;;;;;5052804;28;20053;-71
2022/08/27 07:00:39;;;;;;;10.10;5.82;;;19.50;99.90;;;;;;5055224;28;20040;-71
2022/08/27 07:03:05;;;;;;;13.68;6.38;;;19.50;99.90;;;;;;5063354;28;20013;-71
2022/08/27 07:05:34;;;;;;;9.07;5.20;;;19.60;99.90;;;;;;5055402;28;20469;-71
2022/08/27 07:08:00;;;;;;;8.55;6.50;;;19.50;99.90;;;;;;5030418;28;20028;-71
2022/08/27 07:10:26;;;;;;;9.98;5.38;;;19.50;99.90;;;;;;5043341;28;20115;-71
2022/08/27 07:12:52;;;;;;;14.90;6.45;;;19.50;99.90;;;;;;5064461;28;20078;-71
2022/08/27 07:15:18;;;;;;;9.65;5.40;;;19.50;99.90;;;;;;5024857;28;20025;-71
2022/08/27 07:17:44;;;;;;;11.30;5.30;;;19.50;99.90;;;;;;5057983;28;20090;-71
2022/08/27 07:20:11;;;;;;;13.05;5.82;;;19.60;99.90;;;;;;5051049;28;20040;-71
2022/08/27 07:22:41;;;;;;;10.95;5.88;;;19.60;99.90;;;;;;5040290;28;20029;-72
2022/08/27 07:25:11;;;;;;;9.52;5.95;;;19.70;99.90;;;;;;5038325;28;20052;-72
2022/08/27 07:27:37;;;;;;;8.02;4.85;;;19.70;99.90;;;;;;5057353;28;20099;-72
2022/08/27 07:30:06;;;;;;;6.93;5.60;;;19.80;99.90;;;;;;5060073;28;20120;-72
2022/08/27 07:32:31;;;;;;;6.60;5.38;;;19.80;99.90;;;;;;5060462;28;20016;-72
2022/08/27 07:34:57;;;;;;;11.73;5.47;;;19.80;99.90;;;;;;5057957;28;20029;-72
2022/08/27 07:37:23;;;;;;;9.93;5.38;;;19.80;99.90;;;;;;5039586;28;20174;-71
2022/08/27 07:39:48;;;;;;;11.68;5.20;;;19.80;99.90;;;;;;5051029;28;20025;-72
2022/08/27 07:44:58;;;;;;;11.75;5.47;;;20.00;99.90;;;;;;5052465;28;20044;-72
2022/08/27 07:47:24;;;;;;;10.90;5.32;;;20.00;99.90;;;;;;5050964;28;20029;-72
2022/08/27 07:49:50;;;;;;;10.10;5.60;;;20.10;99.90;;;;;;5050190;28;20036;-71
2022/08/27 07:52:16;;;;;;;8.27;5.10;;;20.10;99.90;;;;;;5058851;28;20676;-74
2022/08/27 07:54:42;;;;;;;8.35;5.07;;;20.10;99.90;;;;;;5055926;28;20063;-71
2022/08/27 07:57:11;;;;;;;8.93;4.63;;;20.30;99.90;;;;;;5035323;28;20083;-73
2022/08/27 07:59:37;;;;;;;11.75;5.47;;;20.30;99.90;;;;;;5061514;28;20018;-71
2022/08/27 08:02:03;;;;;;;10.52;5.18;;;20.40;99.90;;;;;;5059460;28;20028;-72
2022/08/27 08:04:29;;;;;;;10.02;5.45;;;20.40;99.90;;;;;;5059441;28;20109;-72
2022/08/27 08:06:54;;;;;;;12.40;4.47;;;20.40;99.90;;;;;;5056656;28;20480;-72
2022/08/27 08:09:22;;;;;;;9.20;5.28;;;20.50;99.90;;;;;;5040682;28;20032;-71
2022/08/27 08:11:49;;;;;;;8.80;4.55;;;20.50;99.90;;;;;;5058714;28;20024;-73
2022/08/27 08:14:16;;;;;;;7.47;4.15;;;20.70;99.90;;;;;;5054568;28;20027;-78
2022/08/27 08:16:42;;;;;;;8.05;5.25;;;20.70;99.90;;;;;;5042082;28;20116;-76
2022/08/27 08:19:08;;;;;;;9.70;4.72;;;20.70;99.90;;;;;;5040188;28;20459;-71
2022/08/27 08:21:34;;;;;;;9.02;5.43;;;20.70;99.90;;;;;;5058361;28;20416;-73
2022/08/27 08:24:01;;;;;;;9.23;5.05;;;20.80;99.90;;;;;;5057967;28;20063;-72
2022/08/27 08:26:27;;;;;;;12.18;5.40;;;20.90;99.90;;;;;;5060694;28;20413;-72
2022/08/27 08:28:54;;;;;;;9.35;4.97;;;20.90;99.90;;;;;;5058585;28;20091;-71
2022/08/27 08:31:22;;;;;;;10.50;5.05;;;21.00;99.90;;;;;;5066938;28;20405;-72
2022/08/27 08:33:48;;;;;;;8.20;5.03;;;21.10;99.90;;;;;;5059774;28;20392;-72
2022/08/27 08:36:15;;;;;;;9.50;4.57;;;21.00;99.90;;;;;;5063496;28;20149;-72
2022/08/27 08:38:43;;;;;;;6.85;3.85;;;21.10;99.90;;;;;;5060308;28;20078;-73
2022/08/27 08:41:36;;;;;;;5.85;3.30;;;21.00;99.90;;;;;;5044824;28;20025;-72
2022/08/27 08:44:25;;;;;;;8.93;3.88;;;21.00;99.90;;;;;;5061215;28;20486;-71
2022/08/27 08:47:12;;;;;;;6.97;2.83;;;21.10;99.90;;;;;;5062174;28;20021;-74
2022/08/27 08:49:53;;;;;;;5.15;2.38;;;21.30;99.90;;;;;;5049138;28;20112;-72
2022/08/27 08:52:46;;;;;;;8.23;2.50;;;21.20;99.90;;;;;;5049522;28;20504;-73
2022/08/27 08:55:24;;;;;;;8.48;2.53;;;21.30;99.90;;;;;;5001352;28;20131;-72
2022/08/27 08:58:23;;;;;;;7.75;2.72;;;21.30;99.90;;;;;;5036276;28;20026;-72
2022/08/27 09:00:57;;;;;;;6.05;3.13;;;21.30;99.90;;;;;;5044999;28;20103;-73
2022/08/27 09:03:24;;;;;;;5.65;2.92;;;21.20;99.90;;;;;;5056777;28;20049;-72
2022/08/27 09:06:00;;;;;;;9.18;2.90;;;21.30;99.90;;;;;;5042847;28;20108;-73
2022/08/27 09:08:39;;;;;;;7.70;2.67;;;21.40;99.90;;;;;;5049383;28;20025;-72
2022/08/27 09:11:19;;;;;;;6.30;2.85;;;21.40;99.90;;;;;;5042500;28;20123;-71
2022/08/27 09:14:02;;;;;;;3.95;3.08;;;21.40;99.90;;;;;;5049775;28;20020;-71
2022/08/27 09:16:27;;;;;;;7.70;3.85;;;21.40;99.90;;;;;;5042793;28;20111;-71
2022/08/27 09:18:54;;;;;;;6.50;3.50;;;21.50;99.90;;;;;;5047771;28;20464;-71
2022/08/27 09:21:40;;;;;;;7.15;3.40;;;21.50;99.90;;;;;;5040533;28;20545;-72
2022/08/27 09:24:29;;;;;;;5.82;2.92;;;21.50;99.90;;;;;;5048730;28;20032;-72
2022/08/27 09:26:55;;;;;;;5.88;3.33;;;21.40;99.90;;;;;;5044461;28;20070;-72
2022/08/27 09:29:26;;;;;;;5.03;2.85;;;21.50;99.90;;;;;;5049308;28;20037;-72
2022/08/27 09:32:03;;;;;;;5.57;2.85;;;21.50;99.90;;;;;;5046107;28;20036;-71
2022/08/27 09:34:39;;;;;;;7.80;4.03;;;21.50;99.90;;;;;;5049882;28;20040;-72
2022/08/27 09:37:14;;;;;;;7.85;3.28;;;21.50;99.90;;;;;;5045223;28;20477;-72
2022/08/27 09:39:42;;;;;;;6.53;3.30;;;21.50;99.90;;;;;;5048162;28;20024;-71
2022/08/27 09:42:24;;;;;;;7.28;3.33;;;21.50;99.90;;;;;;5043451;28;20034;-72
2022/08/27 09:44:53;;;;;;;8.60;3.38;;;21.60;99.90;;;;;;5040764;28;20025;-72
2022/08/27 09:47:19;;;;;;;6.00;3.42;;;21.70;99.90;;;;;;5045728;28;20033;-71
2022/08/27 09:49:45;;;;;;;5.60;3.67;;;21.80;99.90;;;;;;5043847;28;20093;-73
2022/08/27 09:52:36;;;;;;;6.90;3.08;;;21.80;99.90;;;;;;5039990;28;20040;-72
2022/08/27 09:55:02;;;;;;;6.75;3.28;;;22.00;99.90;;;;;;5043015;28;20117;-71
2022/08/27 09:57:40;;;;;;;6.63;3.38;;;22.20;99.90;;;;;;5049316;28;20617;-72
2022/08/27 10:00:14;;;;;;;4.70;2.90;;;22.20;99.90;;;;;;5048237;28;20033;-72
2022/08/27 10:02:51;;;;;;;5.70;2.97;;;22.20;99.90;;;;;;5038676;28;20401;-72
2022/08/27 10:05:37;;;;;;;4.90;2.97;;;22.20;99.90;;;;;;5040554;28;20047;-72
2022/08/27 10:08:12;;;;;;;7.38;3.28;;;22.10;99.90;;;;;;5046738;28;20056;-72
2022/08/27 10:11:03;;;;;;;5.82;3.10;;;22.20;99.90;;;;;;5033001;28;20037;-71
2022/08/27 10:13:42;;;;;;;7.70;2.97;;;22.20;99.90;;;;;;5047335;28;20536;-71
2022/08/27 10:16:19;;;;;;;6.10;3.17;;;22.30;99.90;;;;;;5053454;28;20809;-71
2022/08/27 10:18:59;;;;;;;6.45;2.90;;;22.40;99.90;;;;;;5052539;28;20020;-71
2022/08/27 10:21:39;;;;;;;8.50;3.55;;;22.60;99.90;;;;;;5028704;28;20025;-71
2022/08/27 10:24:22;;;;;;;6.38;2.85;;;22.60;99.90;;;;;;5047475;28;20037;-72
2022/08/27 10:26:47;;;;;;;5.10;3.45;;;22.60;99.90;;;;;;5043466;28;20013;-71
2022/08/27 10:29:31;;;;;;;5.22;2.40;;;22.70;99.90;;;;;;5030236;28;20125;-72
2022/08/27 10:32:38;;;;;;;7.60;2.55;;;22.70;99.90;;;;;;5046880;28;20501;-71
2022/08/27 10:35:20;;;;;;;6.88;2.83;;;22.60;99.90;;;;;;5044913;28;20025;-71
2022/08/27 10:37:58;;;;;;;7.07;2.78;;;22.80;99.90;;;;;;5049507;28;20027;-72
2022/08/27 10:40:38;;;;;;;47.08;30.50;;;22.60;99.90;;;;;;5059309;28;20024;-71
2022/08/27 10:43:20;;;;;;;6.03;3.15;;;22.50;99.90;;;;;;5059129;28;20035;-71
2022/08/27 10:45:50;;;;;;;6.18;2.88;;;22.50;99.90;;;;;;5057616;28;20520;-72
2022/08/27 10:48:32;;;;;;;15.30;6.35;;;22.40;99.90;;;;;;5063362;28;20056;-71
2022/08/27 10:51:22;;;;;;;16.30;6.57;;;22.50;99.90;;;;;;5063017;28;20025;-71
2022/08/27 10:54:00;;;;;;;8.48;2.65;;;22.50;99.90;;;;;;5052226;28;20436;-71
2022/08/27 10:56:37;;;;;;;7.43;2.42;;;22.60;99.90;;;;;;5052118;28;20284;-70
2022/08/27 10:59:23;;;;;;;6.55;2.15;;;22.60;99.90;;;;;;5041988;28;20456;-73
2022/08/27 11:02:01;;;;;;;5.47;2.85;;;22.70;99.90;;;;;;5059836;28;20056;-74
2022/08/27 11:04:58;;;;;;;3.60;1.92;;;22.70;99.90;;;;;;5064115;28;20384;-72
2022/08/27 11:07:27;;;;;;;5.43;2.70;;;22.70;99.90;;;;;;5040059;28;20026;-72
2022/08/27 11:10:01;;;;;;;7.03;2.65;;;22.70;99.90;;;;;;5059628;28;20025;-73
2022/08/27 11:12:48;;;;;;;9.05;2.25;;;22.80;99.90;;;;;;5060918;28;20567;-71
2022/08/27 11:15:24;;;;;;;4.13;2.05;;;22.80;99.90;;;;;;5054827;28;20028;-72
2022/08/27 11:18:15;;;;;;;4.95;2.10;;;22.70;99.90;;;;;;5040459;28;20221;-71
2022/08/27 11:20:58;;;;;;;5.85;2.35;;;22.70;99.90;;;;;;5043636;28;20100;-71
2022/08/27 11:23:34;;;;;;;5.03;2.10;;;23.10;99.90;;;;;;5047771;28;20033;-72
2022/08/27 11:26:05;;;;;;;4.93;2.13;;;23.40;99.90;;;;;;5043444;28;20100;-71
2022/08/27 11:28:37;;;;;;;4.43;2.10;;;23.80;99.90;;;;;;5033940;28;20524;-72
2022/08/27 11:31:03;;;;;;;3.33;1.77;;;23.70;99.90;;;;;;5045365;28;20032;-73
2022/08/27 11:33:48;;;;;;;10.38;2.47;;;23.50;99.90;;;;;;5048675;28;20029;-72
2022/08/27 11:36:23;;;;;;;7.05;1.92;;;23.40;99.90;;;;;;5048264;28;20029;-72
2022/08/27 11:39:35;;;;;;;4.32;1.60;;;23.30;99.90;;;;;;5052874;28;20104;-72
2022/08/27 11:42:21;;;;;;;5.13;2.03;;;23.20;99.90;;;;;;4950990;28;20602;-71
2022/08/27 11:44:51;;;;;;;4.70;2.10;;;23.30;99.90;;;;;;5044754;28;20025;-71
2022/08/27 11:47:23;;;;;;;3.05;1.60;;;23.30;99.90;;;;;;5039206;28;20102;-72
2022/08/27 11:49:56;;;;;;;4.47;1.63;;;23.20;99.90;;;;;;5042177;28;20771;-71
2022/08/27 11:52:27;;;;;;;2.65;1.40;;;23.10;99.90;;;;;;5048322;28;20466;-72
2022/08/27 11:55:13;;;;;;;5.00;1.83;;;23.00;99.90;;;;;;5027879;28;20026;-72
2022/08/27 11:57:39;;;;;;;3.22;1.83;;;22.90;99.90;;;;;;5041940;28;20049;-72
2022/08/27 12:00:17;;;;;;;2.75;1.73;;;22.90;99.90;;;;;;5040947;28;20059;-72
2022/08/27 12:02:54;;;;;;;4.57;1.70;;;23.00;99.90;;;;;;5042585;28;20025;-71
2022/08/27 12:05:31;;;;;;;4.55;1.50;;;23.00;99.90;;;;;;5033400;28;20059;-72
2022/08/27 12:07:58;;;;;;;4.07;1.85;;;23.10;99.90;;;;;;5049069;28;20451;-73
2022/08/27 12:10:53;;;;;;;5.32;1.65;;;23.20;99.90;;;;;;5051126;28;20070;-72
2022/08/27 12:13:28;;;;;;;5.25;2.03;;;23.40;99.90;;;;;;5024282;28;20037;-72
2022/08/27 12:16:15;;;;;;;4.68;1.85;;;23.50;99.90;;;;;;5052051;28;20021;-71
2022/08/27 12:18:55;;;;;;;4.32;1.90;;;23.50;99.90;;;;;;5043808;28;20027;-72
2022/08/27 12:21:44;;;;;;;3.45;1.30;;;23.60;99.90;;;;;;5047430;28;20378;-72
2022/08/27 12:24:42;;;;;;;4.55;1.70;;;23.50;99.90;;;;;;5051765;28;20010;-72
2022/08/27 12:27:20;;;;;;;5.05;1.52;;;23.50;99.90;;;;;;5031679;28;20485;-72
2022/08/27 12:29:45;;;;;;;5.20;1.55;;;23.60;99.90;;;;;;5042652;28;20050;-72
2022/08/27 12:32:39;;;;;;;3.38;1.45;;;23.60;99.90;;;;;;5043602;28;20112;-73
2022/08/27 12:35:16;;;;;;;5.80;1.77;;;23.70;99.90;;;;;;5050992;28;20025;-72
2022/08/27 12:37:48;;;;;;;4.75;1.40;;;23.90;99.90;;;;;;5045864;28;20108;-72
2022/08/27 12:40:29;;;;;;;3.45;1.58;;;24.10;99.90;;;;;;5050445;28;20036;-72
2022/08/27 12:43:04;;;;;;;4.32;1.25;;;24.00;99.90;;;;;;5033939;28;20367;-72
2022/08/27 12:45:30;;;;;;;4.03;1.23;;;24.00;99.90;;;;;;5046182;28;20029;-72
2022/08/27 12:47:56;;;;;;;5.78;1.50;;;24.00;99.90;;;;;;5040951;28;20377;-72
2022/08/27 12:50:29;;;;;;;4.63;1.65;;;24.00;99.90;;;;;;5048396;28;20033;-72
2022/08/27 12:53:13;;;;;;;2.10;1.65;;;23.80;99.90;;;;;;5032719;28;20023;-72
2022/08/27 12:55:42;;;;;;;3.17;1.63;;;23.80;99.90;;;;;;5046490;28;20354;-72
2022/08/27 12:58:20;;;;;;;3.45;1.42;;;23.60;99.90;;;;;;5034924;28;20063;-72
2022/08/27 13:01:09;;;;;;;2.72;1.20;;;23.50;99.90;;;;;;5051223;28;20044;-72
2022/08/27 13:03:41;;;;;;;4.97;1.35;;;23.60;99.90;;;;;;5051614;28;20028;-72
2022/08/27 13:06:19;;;;;;;4.77;1.80;;;23.60;99.90;;;;;;5041238;28;20029;-72
2022/08/27 13:08:45;;;;;;;4.25;1.30;;;23.50;99.90;;;;;;5046148;28;20024;-72
2022/08/27 13:11:55;;;;;;;4.25;1.52;;;23.60;99.90;;;;;;5049710;28;20045;-72